createdAt,value
2019-02-18T00:00:37.883Z,66.06
2019-02-18T00:03:07.802Z,66.36
2019-02-18T00:05:36.479Z,65.73
2019-02-18T00:08:05.412Z,65.75
2019-02-18T00:10:34.031Z,66.34
2019-02-18T00:13:02.713Z,66.40
2019-02-18T00:15:31.403Z,66.14
2019-02-18T00:18:00.089Z,66.33
2019-02-18T00:20:28.764Z,66.06
2019-02-18T00:22:57.439Z,65.11
2019-02-18T00:25:26.113Z,64.62
2019-02-18T00:27:54.772Z,64.98
2019-02-18T00:30:23.457Z,64.77
2019-02-18T00:32:52.161Z,64.16
2019-02-18T00:35:20.791Z,64.82
2019-02-18T00:37:49.538Z,65.33
2019-02-18T00:40:18.236Z,65.55
2019-02-18T00:42:46.897Z,65.74
2019-02-18T00:45:15.571Z,65.82
2019-02-18T00:47:44.359Z,66.09
2019-02-18T00:50:13.025Z,66.56
2019-02-18T00:52:41.704Z,66.61
2019-02-18T00:55:10.362Z,67.16
2019-02-18T00:57:39.047Z,67.71
2019-02-18T01:00:11.085Z,67.85
2019-02-18T01:02:39.780Z,68.18
2019-02-18T01:05:08.663Z,68.77
2019-02-18T01:07:37.359Z,68.87
2019-02-18T01:10:08.920Z,68.84
2019-02-18T01:12:37.584Z,69.73
2019-02-18T01:15:09.397Z,69.70
2019-02-18T01:17:38.075Z,69.95
2019-02-18T01:20:09.600Z,69.93
2019-02-18T01:22:38.296Z,70.43
2019-02-18T01:25:08.866Z,70.75
2019-02-18T01:27:37.535Z,71.01
2019-02-18T01:30:09.378Z,70.69
2019-02-18T01:32:38.072Z,70.48
2019-02-18T01:35:06.936Z,70.42
2019-02-18T01:37:44.912Z,70.59
2019-02-18T01:40:08.952Z,70.66
2019-02-18T01:42:37.624Z,71.12
2019-02-18T01:45:09.136Z,71.37
2019-02-18T01:47:37.789Z,71.48
2019-02-18T01:50:09.672Z,71.24
2019-02-18T01:52:38.367Z,71.16
2019-02-18T01:55:08.145Z,71.17
2019-02-18T01:57:36.806Z,71.03
2019-02-18T02:00:08.891Z,70.90
2019-02-18T02:02:37.560Z,71.39
2019-02-18T02:05:06.635Z,71.90
2019-02-18T02:07:35.406Z,72.80
2019-02-18T02:10:05.469Z,72.82
2019-02-18T02:12:34.154Z,72.99
2019-02-18T02:15:02.831Z,72.21
2019-02-18T02:17:31.494Z,72.19
2019-02-18T02:20:00.360Z,71.79
2019-02-18T02:22:29.020Z,71.41
2019-02-18T02:24:57.707Z,71.30
2019-02-18T02:27:26.383Z,71.58
2019-02-18T02:29:55.047Z,71.45
2019-02-18T02:32:23.750Z,71.59
2019-02-18T02:34:52.416Z,71.33
2019-02-18T02:37:21.091Z,71.31
2019-02-18T02:39:49.760Z,71.80
2019-02-18T02:42:18.427Z,71.39
2019-02-18T02:44:47.097Z,71.50
2019-02-18T02:47:15.756Z,71.63
2019-02-18T02:49:44.465Z,71.34
2019-02-18T02:52:13.138Z,71.58
2019-02-18T02:54:41.872Z,72.16
2019-02-18T02:57:10.538Z,72.12
2019-02-18T02:59:39.206Z,71.91
2019-02-18T03:02:07.880Z,72.16
2019-02-18T03:04:36.538Z,72.04
2019-02-18T03:07:05.210Z,72.83
2019-02-18T03:09:33.916Z,72.37
2019-02-18T03:12:02.594Z,72.42
2019-02-18T03:14:31.411Z,72.47
2019-02-18T03:17:00.029Z,72.64
2019-02-18T03:19:28.720Z,72.62
2019-02-18T03:21:57.398Z,72.89
2019-02-18T03:24:26.072Z,73.11
2019-02-18T03:26:54.734Z,73.12
2019-02-18T03:29:28.920Z,72.73
2019-02-18T03:31:57.601Z,73.06
2019-02-18T03:34:29.503Z,73.19
2019-02-18T03:36:58.169Z,73.15
2019-02-18T03:39:26.841Z,73.57
2019-02-18T03:41:55.520Z,73.72
2019-02-18T03:44:24.222Z,73.90
2019-02-18T03:46:52.894Z,74.03
2019-02-18T03:49:21.603Z,74.06
2019-02-18T03:51:50.298Z,74.17
2019-02-18T03:54:18.991Z,74.25
2019-02-18T03:56:47.654Z,74.20
2019-02-18T03:59:16.320Z,74.00
2019-02-18T04:01:44.996Z,74.20
2019-02-18T04:04:13.651Z,74.22
2019-02-18T04:06:42.337Z,74.53
2019-02-18T04:09:11.013Z,74.82
2019-02-18T04:11:39.685Z,74.93
2019-02-18T04:14:08.353Z,75.67
2019-02-18T04:16:37.026Z,75.87
2019-02-18T04:19:05.700Z,75.75
2019-02-18T04:21:34.406Z,75.80
2019-02-18T04:24:03.092Z,76.00
2019-02-18T04:26:31.776Z,75.42
2019-02-18T04:29:00.473Z,75.24
2019-02-18T04:31:29.138Z,74.83
2019-02-18T04:33:57.793Z,74.36
2019-02-18T04:36:26.492Z,74.57
2019-02-18T04:38:55.158Z,73.71
2019-02-18T04:41:23.826Z,73.51
2019-02-18T04:43:52.543Z,73.54
2019-02-18T04:46:21.300Z,73.67
2019-02-18T04:48:49.972Z,74.33
2019-02-18T04:51:18.686Z,73.59
2019-02-18T04:53:47.350Z,74.17
2019-02-18T04:56:16.031Z,74.32
2019-02-18T04:58:44.703Z,74.79
2019-02-18T05:01:13.373Z,74.60
2019-02-18T05:03:42.061Z,75.06
2019-02-18T05:06:10.807Z,74.98
2019-02-18T05:08:39.487Z,75.16
2019-02-18T05:11:08.176Z,75.54
2019-02-18T05:13:36.844Z,75.18
2019-02-18T05:16:05.508Z,75.33
2019-02-18T05:18:34.192Z,74.52
2019-02-18T05:21:02.856Z,73.95
2019-02-18T05:23:31.522Z,73.61
2019-02-18T05:26:00.207Z,73.91
2019-02-18T05:28:28.882Z,74.53
2019-02-18T05:30:57.586Z,75.00
2019-02-18T05:33:26.245Z,74.81
2019-02-18T05:35:55.898Z,74.56
2019-02-18T05:38:25.010Z,73.62
2019-02-18T05:40:53.668Z,73.46
2019-02-18T05:43:22.354Z,74.09
2019-02-18T05:45:51.024Z,74.23
2019-02-18T05:48:19.700Z,73.96
2019-02-18T05:50:48.376Z,73.98
2019-02-18T05:53:17.064Z,73.61
2019-02-18T05:55:45.735Z,73.32
2019-02-18T05:58:14.444Z,72.57
2019-02-18T06:00:43.256Z,72.12
2019-02-18T06:03:11.929Z,71.78
2019-02-18T06:05:40.593Z,71.17
2019-02-18T06:08:09.278Z,71.05
2019-02-18T06:10:37.949Z,71.15
2019-02-18T06:13:06.614Z,70.54
2019-02-18T06:15:35.287Z,70.26
2019-02-18T06:18:03.951Z,68.89
2019-02-18T06:20:32.693Z,67.40
2019-02-18T06:23:01.447Z,65.81
2019-02-18T06:25:30.246Z,66.25
2019-02-18T06:27:58.958Z,64.36
2019-02-18T06:30:27.641Z,62.62
2019-02-18T06:32:56.301Z,61.19
2019-02-18T06:35:25.004Z,59.98
2019-02-18T06:37:53.679Z,58.85
2019-02-18T06:40:22.379Z,59.26
2019-02-18T06:42:51.138Z,59.46
2019-02-18T06:45:30.200Z,60.76
2019-02-18T06:48:00.472Z,61.85
2019-02-18T06:50:29.277Z,61.92
2019-02-18T06:52:58.008Z,62.56
2019-02-18T06:55:26.858Z,62.37
2019-02-18T06:57:59.836Z,62.18
2019-02-18T07:00:30.081Z,62.22
2019-02-18T07:03:00.363Z,62.01
2019-02-18T07:05:43.005Z,61.82
2019-02-18T07:08:13.344Z,61.77
2019-02-18T07:10:43.599Z,61.78
2019-02-18T07:13:13.354Z,61.94
2019-02-18T07:15:42.029Z,61.74
2019-02-18T07:18:10.739Z,61.79
2019-02-18T07:20:39.348Z,61.54
2019-02-18T07:23:08.113Z,61.63
2019-02-18T07:25:36.876Z,61.52
2019-02-18T07:28:05.551Z,61.18
2019-02-18T07:30:34.287Z,61.05
2019-02-18T07:33:03.621Z,60.71
2019-02-18T07:35:34.104Z,61.07
2019-02-18T07:38:02.782Z,60.95
2019-02-18T07:40:31.543Z,60.90
2019-02-18T07:43:01.723Z,60.92
2019-02-18T07:45:30.409Z,60.81
2019-02-18T07:47:59.086Z,60.19
2019-02-18T07:50:27.866Z,60.16
2019-02-18T07:52:56.621Z,59.68
2019-02-18T07:55:25.309Z,59.59
2019-02-18T07:57:53.988Z,59.47
2019-02-18T08:00:22.906Z,58.78
2019-02-18T08:02:51.680Z,58.76
2019-02-18T08:05:20.462Z,58.73
2019-02-18T08:07:49.163Z,58.90
2019-02-18T08:10:17.869Z,58.44
2019-02-18T08:12:46.542Z,58.63
2019-02-18T08:15:15.205Z,58.19
2019-02-18T08:17:43.947Z,57.88
2019-02-18T08:20:12.842Z,58.06
2019-02-18T08:22:41.534Z,57.98
2019-02-18T08:25:12.566Z,58.31
2019-02-18T08:27:41.389Z,58.26
2019-02-18T08:30:13.062Z,57.95
2019-02-18T08:32:41.737Z,57.62
2019-02-18T08:35:10.605Z,56.83
2019-02-18T08:37:39.398Z,56.68
2019-02-18T08:40:09.839Z,56.80
2019-02-18T08:42:38.534Z,56.24
2019-02-18T08:45:12.317Z,55.45
2019-02-18T08:47:42.141Z,55.18
2019-02-18T08:50:12.698Z,54.67
2019-02-18T08:52:41.584Z,53.86
2019-02-18T08:55:17.056Z,53.01
2019-02-18T08:57:45.935Z,54.07
2019-02-18T09:00:17.030Z,53.08
2019-02-18T09:02:45.789Z,52.98
2019-02-18T09:05:14.681Z,51.86
2019-02-18T09:07:44.019Z,51.43
2019-02-18T09:10:14.520Z,51.70
2019-02-18T09:12:43.540Z,51.21
2019-02-18T09:15:14.055Z,51.21
2019-02-18T09:17:42.761Z,51.35
2019-02-18T09:20:13.993Z,51.07
2019-02-18T09:23:02.361Z,50.50
2019-02-18T09:25:32.735Z,50.36
2019-02-18T09:28:01.525Z,50.13
2019-02-18T09:30:31.831Z,49.70
2019-02-18T09:33:00.643Z,49.23
2019-02-18T09:35:29.756Z,42.11
2019-02-18T09:37:58.433Z,33.84
2019-02-18T09:40:27.238Z,28.73
2019-02-18T09:42:56.214Z,27.36
2019-02-18T09:45:25.235Z,28.34
2019-02-18T09:47:54.453Z,27.33
2019-02-18T09:50:23.545Z,26.36
2019-02-18T09:52:52.231Z,24.67
2019-02-18T09:55:21.015Z,24.95
2019-02-18T09:57:49.794Z,25.60
2019-02-18T10:00:18.713Z,25.48
2019-02-18T10:02:47.630Z,24.12
2019-02-18T10:05:16.383Z,25.13
2019-02-18T10:07:45.137Z,27.18
2019-02-18T10:10:13.827Z,29.91
2019-02-18T10:12:42.542Z,30.53
2019-02-18T10:15:11.918Z,31.91
2019-02-18T10:17:40.676Z,33.31
2019-02-18T10:20:13.659Z,33.91
2019-02-18T10:22:42.416Z,34.95
2019-02-18T10:25:12.805Z,37.02
2019-02-18T10:27:41.624Z,37.61
2019-02-18T10:30:11.323Z,37.94
2019-02-18T10:32:40.010Z,37.72
2019-02-18T10:35:14.847Z,37.86
2019-02-18T10:37:43.637Z,38.06
2019-02-18T10:40:12.722Z,38.26
2019-02-18T10:42:41.435Z,38.47
2019-02-18T10:45:12.111Z,36.00
2019-02-18T10:47:41.547Z,28.84
2019-02-18T10:50:11.586Z,24.34
2019-02-18T10:52:40.300Z,21.96
2019-02-18T10:55:10.623Z,21.48
2019-02-18T10:57:39.848Z,20.18
2019-02-18T11:00:16.597Z,17.82
2019-02-18T11:02:45.738Z,17.96
2019-02-18T11:05:14.749Z,18.68
2019-02-18T11:07:43.581Z,20.68
2019-02-18T11:10:14.344Z,18.36
2019-02-18T11:12:43.037Z,20.46
2019-02-18T11:15:13.241Z,19.64
2019-02-18T11:17:42.415Z,18.71
2019-02-18T11:20:12.871Z,17.56
2019-02-18T11:22:43.110Z,16.44
2019-02-18T11:25:14.832Z,16.24
2019-02-18T11:27:43.540Z,16.65
2019-02-18T11:30:19.654Z,17.55
2019-02-18T11:32:48.352Z,16.83
2019-02-18T11:35:17.404Z,15.75
2019-02-18T11:37:46.125Z,15.06
2019-02-18T11:40:16.570Z,14.82
2019-02-18T11:42:45.394Z,14.33
2019-02-18T11:45:20.204Z,14.74
2019-02-18T11:47:49.520Z,14.27
2019-02-18T11:50:21.285Z,14.67
2019-02-18T11:52:50.619Z,14.26
2019-02-18T11:55:19.529Z,13.82
2019-02-18T11:57:48.304Z,14.29
2019-02-18T12:00:17.534Z,15.51
2019-02-18T12:02:46.710Z,15.45
2019-02-18T12:05:15.705Z,15.20
2019-02-18T12:07:44.760Z,15.40
2019-02-18T12:10:14.099Z,15.51
2019-02-18T12:12:43.216Z,14.61
2019-02-18T12:15:14.052Z,14.31
2019-02-18T12:17:43.067Z,14.22
2019-02-18T12:20:15.981Z,14.66
2019-02-18T12:22:44.823Z,14.54
2019-02-18T12:25:14.733Z,14.11
2019-02-18T12:27:44.241Z,14.88
2019-02-18T12:30:21.049Z,14.32
2019-02-18T12:32:49.873Z,13.94
2019-02-18T12:35:18.643Z,13.57
2019-02-18T12:37:54.956Z,13.59
2019-02-18T12:40:18.028Z,13.78
2019-02-18T12:42:46.899Z,14.67
2019-02-18T12:45:15.917Z,14.81
2019-02-18T12:47:44.605Z,15.40
2019-02-18T12:50:13.950Z,14.31
2019-02-18T12:52:42.896Z,14.28
2019-02-18T12:55:12.300Z,13.90
2019-02-18T12:57:41.057Z,14.23
2019-02-18T13:00:13.939Z,15.37
2019-02-18T13:02:44.694Z,15.84
2019-02-18T13:05:13.984Z,16.37
2019-02-18T13:07:42.760Z,15.51
2019-02-18T13:10:12.217Z,15.67
2019-02-18T13:12:41.538Z,16.77
2019-02-18T13:15:13.112Z,16.15
2019-02-18T13:17:42.808Z,15.17
2019-02-18T13:20:12.042Z,14.88
2019-02-18T13:22:40.845Z,14.34
2019-02-18T13:25:10.688Z,14.42
2019-02-18T13:27:39.380Z,14.73
2019-02-18T13:30:19.477Z,14.25
2019-02-18T13:32:48.316Z,15.27
2019-02-18T13:35:17.787Z,16.23
2019-02-18T13:37:46.579Z,16.14
2019-02-18T13:40:16.769Z,15.98
2019-02-18T13:42:46.170Z,15.23
2019-02-18T13:45:15.306Z,15.33
2019-02-18T13:47:45.109Z,16.17
2019-02-18T13:50:14.987Z,17.00
2019-02-18T13:52:43.770Z,16.25
2019-02-18T13:55:13.759Z,17.21
2019-02-18T13:57:42.979Z,17.79
2019-02-18T14:00:16.373Z,16.55
2019-02-18T14:02:45.145Z,16.54
2019-02-18T14:05:14.251Z,17.09
2019-02-18T14:07:42.942Z,17.19
2019-02-18T14:10:11.889Z,17.19
2019-02-18T14:12:40.841Z,16.69
2019-02-18T14:15:12.267Z,16.33
2019-02-18T14:17:40.964Z,16.52
2019-02-18T14:20:11.996Z,16.86
2019-02-18T14:22:40.959Z,16.37
2019-02-18T14:25:10.952Z,16.38
2019-02-18T14:27:39.651Z,16.91
2019-02-18T14:30:14.761Z,17.22
2019-02-18T14:32:43.734Z,17.27
2019-02-18T14:35:12.582Z,18.77
2019-02-18T14:37:41.370Z,19.30
2019-02-18T14:40:12.743Z,20.17
2019-02-18T14:42:41.410Z,22.07
2019-02-18T14:45:10.899Z,23.92
2019-02-18T14:47:39.590Z,25.64
2019-02-18T14:50:09.653Z,27.04
2019-02-18T14:52:38.389Z,27.69
2019-02-18T14:55:09.112Z,28.55
2019-02-18T14:57:37.868Z,28.88
2019-02-18T15:00:21.348Z,29.57
2019-02-18T15:02:51.455Z,30.01
2019-02-18T15:05:20.389Z,30.42
2019-02-18T15:07:49.278Z,31.20
2019-02-18T15:10:18.202Z,32.60
2019-02-18T15:12:46.904Z,33.55
2019-02-18T15:15:15.976Z,34.83
2019-02-18T15:17:44.763Z,35.61
2019-02-18T15:20:13.489Z,36.04
2019-02-18T15:22:42.246Z,36.34
2019-02-18T15:25:11.748Z,37.15
2019-02-18T15:27:40.436Z,38.30
2019-02-18T15:30:12.613Z,38.45
2019-02-18T15:32:41.393Z,39.18
2019-02-18T15:35:10.237Z,39.92
2019-02-18T15:37:38.976Z,40.09
2019-02-18T15:40:09.969Z,40.10
2019-02-18T15:42:42.148Z,40.59
2019-02-18T15:45:10.098Z,40.45
2019-02-18T15:47:39.239Z,40.14
2019-02-18T15:50:12.936Z,40.44
2019-02-18T15:52:41.710Z,40.25
2019-02-18T15:55:11.408Z,40.85
2019-02-18T15:57:40.189Z,41.23
2019-02-18T16:00:21.072Z,41.09
2019-02-18T16:02:50.272Z,41.15
2019-02-18T16:05:19.501Z,41.64
2019-02-18T16:07:48.278Z,42.01
2019-02-18T16:10:16.993Z,42.27
2019-02-18T16:12:50.735Z,42.38
2019-02-18T16:15:16.419Z,42.83
2019-02-18T16:17:45.672Z,42.86
2019-02-18T16:20:14.857Z,43.09
2019-02-18T16:22:43.660Z,44.17
2019-02-18T16:25:15.260Z,44.36
2019-02-18T16:27:43.934Z,44.03
2019-02-18T16:30:14.708Z,45.14
2019-02-18T16:32:43.748Z,45.43
2019-02-18T16:35:12.549Z,45.90
2019-02-18T16:37:41.904Z,45.71
2019-02-18T16:40:15.944Z,45.49
2019-02-18T16:42:44.760Z,45.51
2019-02-18T16:45:15.142Z,46.25
2019-02-18T16:47:43.908Z,46.89
2019-02-18T16:50:12.828Z,47.78
2019-02-18T16:52:41.497Z,47.38
2019-02-18T16:55:12.262Z,47.35
2019-02-18T16:57:40.950Z,47.21
2019-02-18T17:00:22.190Z,48.16
2019-02-18T17:02:51.136Z,48.34
2019-02-18T17:05:20.157Z,48.34
2019-02-18T17:07:48.830Z,47.75
2019-02-18T17:10:17.508Z,46.44
2019-02-18T17:12:46.558Z,46.21
2019-02-18T17:15:15.234Z,46.85
2019-02-18T17:17:43.943Z,47.45
2019-02-18T17:20:12.600Z,47.89
2019-02-18T17:22:41.457Z,46.63
2019-02-18T17:25:11.930Z,45.74
2019-02-18T17:27:40.610Z,45.66
2019-02-18T17:30:12.212Z,45.68
2019-02-18T17:32:41.008Z,45.81
2019-02-18T17:35:14.353Z,45.88
2019-02-18T17:37:43.032Z,46.88
2019-02-18T17:40:13.007Z,47.44
2019-02-18T17:42:42.103Z,48.25
2019-02-18T17:45:16.205Z,48.43
2019-02-18T17:47:44.873Z,48.64
2019-02-18T17:50:15.518Z,49.12
2019-02-18T17:52:44.258Z,49.29
2019-02-18T17:55:15.599Z,49.97
2019-02-18T17:57:44.271Z,49.81
2019-02-18T18:00:15.689Z,49.54
2019-02-18T18:02:44.373Z,50.09
2019-02-18T18:05:13.366Z,50.23
2019-02-18T18:07:42.107Z,50.34
2019-02-18T18:10:12.476Z,50.38
2019-02-18T18:12:41.167Z,51.11
2019-02-18T18:15:12.481Z,50.36
2019-02-18T18:17:41.204Z,50.52
2019-02-18T18:20:11.970Z,50.68
2019-02-18T18:22:41.308Z,50.21
2019-02-18T18:25:12.516Z,50.17
2019-02-18T18:27:41.206Z,49.99
2019-02-18T18:30:12.615Z,49.11
2019-02-18T18:32:41.323Z,48.78
2019-02-18T18:35:11.775Z,48.28
2019-02-18T18:37:40.490Z,48.53
2019-02-18T18:40:14.701Z,48.78
2019-02-18T18:42:43.406Z,49.01
2019-02-18T18:45:15.615Z,49.41
2019-02-18T18:47:44.483Z,49.68
2019-02-18T18:50:15.843Z,49.78
2019-02-18T18:52:44.882Z,49.73
2019-02-18T18:55:13.552Z,49.46
2019-02-18T18:57:42.228Z,48.97
2019-02-18T19:00:21.694Z,49.53
2019-02-18T19:02:50.362Z,48.91
2019-02-18T19:05:19.414Z,49.96
2019-02-18T19:07:48.117Z,48.69
2019-02-18T19:10:17.467Z,48.78
2019-02-18T19:12:46.138Z,49.21
2019-02-18T19:15:17.095Z,49.84
2019-02-18T19:17:45.786Z,49.87
2019-02-18T19:20:14.815Z,49.69
2019-02-18T19:22:43.502Z,50.28
2019-02-18T19:25:12.884Z,50.61
2019-02-18T19:27:41.643Z,50.83
2019-02-18T19:30:13.285Z,50.65
2019-02-18T19:32:41.976Z,52.07
2019-02-18T19:35:10.669Z,53.43
2019-02-18T19:37:39.358Z,54.02
2019-02-18T19:40:10.741Z,54.16
2019-02-18T19:42:39.449Z,55.11
2019-02-18T19:45:17.015Z,55.16
2019-02-18T19:47:45.721Z,55.17
2019-02-18T19:50:14.392Z,55.39
2019-02-18T19:52:43.070Z,55.71
2019-02-18T19:55:13.038Z,55.57
2019-02-18T19:57:41.703Z,55.49
2019-02-18T20:00:13.280Z,54.91
2019-02-18T20:02:41.951Z,55.13
2019-02-18T20:05:10.920Z,54.79
2019-02-18T20:07:39.601Z,55.05
2019-02-18T20:10:11.037Z,55.11
2019-02-18T20:12:39.827Z,55.32
2019-02-18T20:15:11.255Z,53.85
2019-02-18T20:17:39.918Z,54.29
2019-02-18T20:20:16.551Z,54.00
2019-02-18T20:22:45.223Z,54.64
2019-02-18T20:25:14.107Z,54.90
2019-02-18T20:27:42.750Z,55.09
2019-02-18T20:30:16.326Z,55.27
2019-02-18T20:32:44.988Z,55.52
2019-02-18T20:35:13.766Z,55.01
2019-02-18T20:37:42.439Z,55.75
2019-02-18T20:40:11.944Z,55.48
2019-02-18T20:42:42.456Z,55.99
2019-02-18T20:45:12.444Z,55.69
2019-02-18T20:47:41.422Z,55.99
2019-02-18T20:50:14.534Z,56.25
2019-02-18T20:52:43.199Z,56.83
2019-02-18T20:55:13.581Z,57.61
2019-02-18T20:57:43.336Z,57.89
2019-02-18T21:00:22.661Z,57.95
2019-02-18T21:02:51.325Z,58.16
2019-02-18T21:05:20.175Z,58.12
2019-02-18T21:07:49.234Z,58.26
2019-02-18T21:10:24.285Z,57.70
2019-02-18T21:12:53.070Z,57.63
2019-02-18T21:15:21.733Z,57.54
2019-02-18T21:17:50.399Z,57.69
2019-02-18T21:20:19.077Z,57.85
2019-02-18T21:22:48.128Z,57.92
2019-02-18T21:25:16.802Z,57.17
2019-02-18T21:27:45.473Z,57.21
2019-02-18T21:30:15.446Z,57.02
2019-02-18T21:32:44.107Z,57.39
2019-02-18T21:35:12.785Z,57.31
2019-02-18T21:37:42.011Z,57.38
2019-02-18T21:40:11.841Z,57.71
2019-02-18T21:42:40.528Z,57.99
2019-02-18T21:45:11.987Z,58.49
2019-02-18T21:47:40.693Z,58.97
2019-02-18T21:50:10.663Z,58.84
2019-02-18T21:52:39.618Z,58.85
2019-02-18T21:55:10.186Z,58.63
2019-02-18T21:57:39.216Z,58.88
2019-02-18T22:00:21.130Z,59.80
2019-02-18T22:02:50.213Z,59.34
2019-02-18T22:05:19.361Z,59.56
2019-02-18T22:07:48.510Z,59.50
2019-02-18T22:10:17.292Z,59.49
2019-02-18T22:12:45.956Z,59.70
2019-02-18T22:15:15.679Z,60.33
2019-02-18T22:17:44.585Z,60.66
2019-02-18T22:20:14.459Z,59.91
2019-02-18T22:22:43.149Z,59.94
2019-02-18T22:25:12.919Z,60.12
2019-02-18T22:27:41.698Z,60.94
2019-02-18T22:30:15.752Z,61.46
2019-02-18T22:32:44.514Z,61.46
2019-02-18T22:35:13.598Z,61.16
2019-02-18T22:37:42.502Z,61.40
2019-02-18T22:40:12.679Z,61.26
2019-02-18T22:42:41.651Z,61.47
2019-02-18T22:45:11.853Z,61.18
2019-02-18T22:47:40.584Z,61.31
2019-02-18T22:50:11.002Z,61.63
2019-02-18T22:52:39.752Z,61.53
2019-02-18T22:55:09.969Z,62.33
2019-02-18T22:57:38.723Z,62.28
2019-02-18T23:00:10.329Z,62.67
2019-02-18T23:02:40.408Z,61.98
2019-02-18T23:05:09.088Z,62.23
2019-02-18T23:07:37.812Z,62.32
2019-02-18T23:10:07.255Z,62.75
2019-02-18T23:12:35.939Z,62.84
2019-02-18T23:15:05.716Z,62.66
2019-02-18T23:17:34.405Z,62.56
2019-02-18T23:20:03.070Z,62.95
2019-02-18T23:22:32.065Z,62.91
2019-02-18T23:25:01.538Z,63.08
2019-02-18T23:27:30.318Z,63.33
2019-02-18T23:29:59.035Z,63.81
2019-02-18T23:32:27.730Z,64.04
2019-02-18T23:34:56.563Z,63.76
2019-02-18T23:37:25.842Z,63.86
2019-02-18T23:39:54.528Z,64.01
2019-02-18T23:42:23.219Z,64.30
2019-02-18T23:44:58.995Z,64.43
2019-02-18T23:47:22.342Z,64.29
2019-02-18T23:49:51.075Z,64.25
2019-02-18T23:52:19.745Z,64.54
2019-02-18T23:54:48.445Z,64.90
2019-02-18T23:57:17.142Z,65.13
2019-02-18T23:59:45.807Z,65.22
